createdAt,value
2018-04-14T00:03:01.934Z,25.90
2018-04-14T00:06:06.010Z,28.40
2018-04-14T00:09:09.337Z,27.20
2018-04-14T00:12:13.405Z,25.77
2018-04-14T00:15:16.720Z,29.50
2018-04-14T00:18:20.037Z,27.87
2018-04-14T00:21:23.480Z,28.50
2018-04-14T00:24:26.821Z,27.80
2018-04-14T00:27:30.125Z,26.57
2018-04-14T00:30:33.461Z,27.40
2018-04-14T00:33:36.765Z,28.27
2018-04-14T00:36:40.082Z,27.37
2018-04-14T00:39:43.391Z,26.87
2018-04-14T00:42:46.733Z,26.93
2018-04-14T00:45:50.034Z,27.70
2018-04-14T00:48:53.395Z,27.63
2018-04-14T00:51:56.689Z,26.53
2018-04-14T00:54:59.997Z,27.97
2018-04-14T00:58:04.076Z,26.90
2018-04-14T01:01:07.377Z,25.53
2018-04-14T01:04:10.695Z,26.67
2018-04-14T01:07:13.988Z,26.10
2018-04-14T01:10:17.304Z,26.77
2018-04-14T01:13:21.373Z,27.43
2018-04-14T01:16:24.701Z,28.87
2018-04-14T01:19:28.009Z,29.03
2018-04-14T01:22:32.101Z,28.37
2018-04-14T01:25:35.424Z,32.37
2018-04-14T01:28:39.492Z,31.00
2018-04-14T01:31:42.809Z,31.83
2018-04-14T01:34:46.117Z,32.67
2018-04-14T01:37:49.433Z,33.53
2018-04-14T01:40:53.497Z,33.73
2018-04-14T01:43:56.817Z,35.90
2018-04-14T01:47:00.125Z,33.60
2018-04-14T01:50:03.460Z,34.37
2018-04-14T01:53:06.756Z,32.80
2018-04-14T01:56:10.086Z,32.67
2018-04-14T01:59:13.382Z,39.83
2018-04-14T02:02:16.709Z,32.83
2018-04-14T02:05:20.776Z,33.30
2018-04-14T02:08:24.088Z,33.03
2018-04-14T02:11:27.411Z,30.63
2018-04-14T02:14:30.705Z,34.27
2018-04-14T02:17:34.021Z,32.43
2018-04-14T02:20:38.085Z,34.33
2018-04-14T02:23:41.398Z,33.07
2018-04-14T02:26:44.710Z,34.17
2018-04-14T02:29:48.029Z,34.90
2018-04-14T02:32:51.332Z,33.83
2018-04-14T02:35:54.652Z,32.90
2018-04-14T02:38:57.966Z,32.27
2018-04-14T02:42:01.274Z,33.70
2018-04-14T02:45:04.606Z,32.23
2018-04-14T02:48:08.678Z,33.67
2018-04-14T02:51:12.013Z,32.10
2018-04-14T02:54:16.069Z,34.47
2018-04-14T02:57:19.385Z,33.77
2018-04-14T03:00:22.685Z,32.10
2018-04-14T03:03:26.002Z,34.83
2018-04-14T03:06:29.318Z,33.90
2018-04-14T03:09:32.656Z,35.90
2018-04-14T03:12:35.994Z,34.57
2018-04-14T03:15:39.293Z,34.63
2018-04-14T03:18:42.608Z,34.20
2018-04-14T03:21:46.677Z,33.23
2018-04-14T03:24:50.002Z,31.93
2018-04-14T03:27:53.313Z,31.83
2018-04-14T03:30:57.394Z,31.17
2018-04-14T03:34:00.691Z,32.00
2018-04-14T03:37:04.040Z,31.30
2018-04-14T03:40:07.366Z,32.87
2018-04-14T03:43:10.661Z,33.53
2018-04-14T03:46:13.989Z,51.83
2018-04-14T03:49:17.289Z,87.53
2018-04-14T03:52:20.613Z,47.27
2018-04-14T03:55:23.918Z,36.37
2018-04-14T03:58:27.257Z,36.17
2018-04-14T04:01:30.563Z,35.33
2018-04-14T04:04:33.898Z,35.80
2018-04-14T04:07:37.208Z,35.53
2018-04-14T04:10:40.528Z,36.23
2018-04-14T04:13:43.824Z,35.67
2018-04-14T04:16:47.149Z,35.90
2018-04-14T04:20:08.169Z,36.70
2018-04-14T04:23:29.064Z,37.43
2018-04-14T04:26:32.364Z,37.57
2018-04-14T04:29:35.697Z,39.27
2018-04-14T04:32:39.848Z,38.47
2018-04-14T04:35:43.165Z,38.17
2018-04-14T04:38:46.477Z,40.27
2018-04-14T04:41:49.804Z,39.37
2018-04-14T04:44:53.130Z,38.10
2018-04-14T04:47:56.445Z,39.10
2018-04-14T04:50:59.764Z,40.07
2018-04-14T04:54:03.086Z,40.57
2018-04-14T04:57:06.409Z,41.17
2018-04-14T05:00:09.730Z,41.17
2018-04-14T05:03:13.029Z,38.80
2018-04-14T05:06:16.353Z,38.47
2018-04-14T05:09:20.421Z,39.67
2018-04-14T05:12:23.770Z,37.57
2018-04-14T05:15:27.848Z,41.27
2018-04-14T05:18:31.194Z,39.77
2018-04-14T05:21:35.261Z,40.60
2018-04-14T05:24:38.586Z,40.13
2018-04-14T05:27:41.932Z,39.47
2018-04-14T05:30:45.240Z,39.87
2018-04-14T05:33:48.562Z,41.30
2018-04-14T05:36:51.867Z,39.33
2018-04-14T05:39:55.341Z,42.97
2018-04-14T05:42:58.667Z,41.67
2018-04-14T05:46:01.974Z,42.50
2018-04-14T05:49:06.064Z,38.27
2018-04-14T05:52:09.366Z,39.80
2018-04-14T05:55:12.712Z,37.73
2018-04-14T05:58:16.014Z,40.90
2018-04-14T06:01:19.329Z,37.97
2018-04-14T06:04:22.633Z,40.23
2018-04-14T06:07:25.951Z,38.00
2018-04-14T06:10:29.261Z,40.87
2018-04-14T06:13:33.352Z,38.67
2018-04-14T06:16:36.679Z,40.53
2018-04-14T06:19:40.773Z,38.97
2018-04-14T06:22:44.068Z,41.57
2018-04-14T06:25:47.385Z,43.37
2018-04-14T06:28:51.472Z,42.07
2018-04-14T06:31:54.775Z,38.40
2018-04-14T06:34:58.874Z,39.17
2018-04-14T06:38:02.188Z,39.60
2018-04-14T06:41:05.508Z,41.47
2018-04-14T06:44:08.845Z,38.50
2018-04-14T06:47:12.137Z,40.77
2018-04-14T06:50:16.206Z,40.80
2018-04-14T06:53:20.981Z,41.00
2018-04-14T06:56:24.298Z,39.70
2018-04-14T06:59:27.601Z,39.60
2018-04-14T07:02:31.174Z,41.63
2018-04-14T07:05:34.477Z,42.07
2018-04-14T07:08:37.809Z,42.40
2018-04-14T07:11:41.152Z,41.60
2018-04-14T07:14:44.477Z,44.07
2018-04-14T07:17:47.794Z,46.47
2018-04-14T07:20:51.108Z,44.67
2018-04-14T07:23:55.193Z,47.93
2018-04-14T07:26:58.499Z,45.97
2018-04-14T07:30:01.822Z,43.03
2018-04-14T07:33:05.897Z,44.67
2018-04-14T07:36:09.215Z,44.23
2018-04-14T07:39:12.538Z,46.40
2018-04-14T07:42:16.625Z,45.33
2018-04-14T07:45:19.945Z,45.20
2018-04-14T07:48:24.018Z,43.63
2018-04-14T07:51:27.375Z,41.50
2018-04-14T07:54:30.716Z,41.33
2018-04-14T07:57:34.049Z,42.03
2018-04-14T08:00:37.366Z,43.60
2018-04-14T08:03:40.685Z,42.80
2018-04-14T08:06:43.994Z,42.47
2018-04-14T08:09:47.309Z,41.97
2018-04-14T08:12:50.626Z,41.67
2018-04-14T08:15:54.689Z,44.30
2018-04-14T08:18:58.004Z,46.97
2018-04-14T08:22:01.323Z,46.93
2018-04-14T08:25:04.629Z,48.83
2018-04-14T08:28:07.938Z,46.50
2018-04-14T08:31:12.045Z,43.93
2018-04-14T08:34:15.348Z,45.40
2018-04-14T08:37:19.441Z,45.73
2018-04-14T08:40:23.534Z,43.20
2018-04-14T08:43:26.845Z,42.87
2018-04-14T08:46:30.177Z,44.80
2018-04-14T08:49:33.485Z,45.43
2018-04-14T08:52:36.804Z,45.90
2018-04-14T08:55:40.105Z,50.73
2018-04-14T08:58:43.429Z,47.60
2018-04-14T09:01:46.753Z,76.10
2018-04-14T09:04:50.825Z,54.17
2018-04-14T09:07:54.145Z,52.13
2018-04-14T09:10:58.220Z,46.40
2018-04-14T09:14:01.537Z,48.17
2018-04-14T09:17:04.837Z,46.90
2018-04-14T09:20:08.201Z,47.23
2018-04-14T09:23:11.527Z,42.33
2018-04-14T09:26:14.837Z,43.30
2018-04-14T09:29:18.161Z,47.07
2018-04-14T09:32:21.470Z,46.40
2018-04-14T09:35:24.789Z,41.93
2018-04-14T09:38:28.105Z,41.10
2018-04-14T09:41:31.430Z,40.67
2018-04-14T09:44:35.519Z,39.77
2018-04-14T09:47:38.821Z,42.17
2018-04-14T09:50:42.145Z,41.60
2018-04-14T09:53:46.229Z,42.93
2018-04-14T09:56:49.549Z,43.60
2018-04-14T09:59:53.649Z,39.93
2018-04-14T10:03:00.990Z,39.33
2018-04-14T10:06:04.266Z,40.53
2018-04-14T10:09:07.578Z,38.80
2018-04-14T10:12:10.903Z,43.23
2018-04-14T10:15:14.210Z,41.67
2018-04-14T10:18:17.540Z,43.20
2018-04-14T10:21:21.618Z,43.07
2018-04-14T10:24:24.937Z,43.07
2018-04-14T10:27:28.263Z,41.03
2018-04-14T10:30:31.589Z,39.17
2018-04-14T10:33:34.917Z,42.63
2018-04-14T10:36:38.239Z,42.27
2018-04-14T10:39:42.361Z,40.30
2018-04-14T10:42:46.418Z,42.03
2018-04-14T10:45:49.744Z,43.33
2018-04-14T10:48:53.041Z,45.93
2018-04-14T10:51:56.362Z,43.53
2018-04-14T10:55:00.445Z,44.20
2018-04-14T10:58:03.769Z,42.27
2018-04-14T11:01:07.850Z,43.47
2018-04-14T11:04:11.170Z,40.50
2018-04-14T11:07:14.493Z,41.27
2018-04-14T11:10:17.813Z,45.23
2018-04-14T11:13:21.445Z,44.40
2018-04-14T11:16:25.425Z,47.00
2018-04-14T11:19:28.742Z,46.50
2018-04-14T11:22:32.048Z,45.97
2018-04-14T11:25:35.370Z,46.67
2018-04-14T11:28:38.714Z,47.30
2018-04-14T11:31:42.025Z,47.90
2018-04-14T11:34:45.353Z,49.27
2018-04-14T11:37:48.672Z,49.17
2018-04-14T11:40:52.745Z,51.27
2018-04-14T11:43:56.065Z,50.47
2018-04-14T11:46:59.367Z,50.13
2018-04-14T11:50:03.457Z,51.77
2018-04-14T11:53:06.785Z,50.60
2018-04-14T11:56:10.868Z,50.67
2018-04-14T11:59:14.217Z,54.73
2018-04-14T12:02:17.568Z,54.90
2018-04-14T12:05:20.861Z,54.63
2018-04-14T12:08:24.169Z,58.93
2018-04-14T12:11:27.494Z,57.67
2018-04-14T12:14:31.559Z,55.20
2018-04-14T12:17:34.886Z,55.83
2018-04-14T12:20:38.965Z,58.83
2018-04-14T12:23:42.293Z,67.13
2018-04-14T12:26:45.606Z,70.83
2018-04-14T12:29:48.936Z,74.00
2018-04-14T12:32:52.265Z,69.13
2018-04-14T12:35:55.690Z,63.27
2018-04-14T12:38:59.068Z,60.43
2018-04-14T12:42:02.381Z,64.77
2018-04-14T12:45:06.474Z,61.10
2018-04-14T12:48:09.798Z,52.53
2018-04-14T12:51:13.113Z,49.33
2018-04-14T12:54:16.433Z,51.90
2018-04-14T12:57:19.761Z,48.40
2018-04-14T13:00:23.089Z,43.37
2018-04-14T13:03:27.152Z,42.30
2018-04-14T13:06:30.492Z,41.73
2018-04-14T13:09:34.566Z,41.20
2018-04-14T13:12:37.901Z,39.93
2018-04-14T13:15:41.218Z,41.13
2018-04-14T13:18:44.534Z,35.80
2018-04-14T13:21:47.854Z,36.03
2018-04-14T13:24:51.182Z,36.13
2018-04-14T13:27:54.507Z,37.33
2018-04-14T13:30:57.800Z,37.33
2018-04-14T13:34:01.121Z,38.60
2018-04-14T13:37:04.437Z,36.57
2018-04-14T13:40:07.763Z,39.27
2018-04-14T13:43:11.102Z,39.00
2018-04-14T13:46:15.182Z,38.50
2018-04-14T13:49:19.265Z,37.33
2018-04-14T13:52:22.571Z,36.33
2018-04-14T13:55:25.892Z,37.80
2018-04-14T13:58:29.969Z,37.40
2018-04-14T14:01:33.301Z,38.80
2018-04-14T14:04:37.403Z,36.97
2018-04-14T14:07:40.701Z,32.43
2018-04-14T14:10:44.031Z,33.30
2018-04-14T14:13:47.387Z,31.77
2018-04-14T14:16:50.704Z,34.97
2018-04-14T14:19:54.776Z,37.60
2018-04-14T14:22:58.098Z,40.43
2018-04-14T14:26:01.404Z,41.10
2018-04-14T14:29:04.729Z,35.07
2018-04-14T14:32:08.049Z,33.93
2018-04-14T14:35:12.137Z,34.93
2018-04-14T14:38:15.461Z,36.20
2018-04-14T14:41:18.765Z,37.17
2018-04-14T14:44:22.084Z,31.23
2018-04-14T14:47:25.380Z,33.87
2018-04-14T14:50:28.704Z,31.83
2018-04-14T14:53:32.777Z,32.20
2018-04-14T14:56:36.094Z,33.60
2018-04-14T14:59:39.397Z,33.53
2018-04-14T15:02:42.757Z,29.93
2018-04-14T15:05:46.109Z,30.20
2018-04-14T15:08:50.189Z,30.80
2018-04-14T15:11:53.497Z,34.50
2018-04-14T15:14:56.845Z,40.67
2018-04-14T15:18:00.157Z,45.13
2018-04-14T15:21:03.487Z,42.63
2018-04-14T15:24:06.792Z,45.27
2018-04-14T15:27:10.116Z,41.27
2018-04-14T15:30:13.424Z,39.00
2018-04-14T15:33:16.745Z,35.03
2018-04-14T15:36:20.057Z,42.03
2018-04-14T15:39:23.393Z,35.67
2018-04-14T15:42:26.717Z,34.43
2018-04-14T15:45:30.045Z,32.20
2018-04-14T15:48:33.348Z,32.97
2018-04-14T15:51:36.668Z,29.80
2018-04-14T15:54:40.757Z,25.23
2018-04-14T15:57:44.087Z,31.23
2018-04-14T16:00:48.157Z,28.07
2018-04-14T16:03:51.533Z,31.47
2018-04-14T16:06:55.580Z,31.27
2018-04-14T16:09:58.912Z,30.47
2018-04-14T16:13:02.985Z,28.20
2018-04-14T16:16:06.313Z,26.27
2018-04-14T16:19:10.387Z,27.03
2018-04-14T16:22:13.713Z,29.37
2018-04-14T16:25:17.037Z,22.77
2018-04-14T16:28:21.121Z,23.87
2018-04-14T16:31:24.488Z,27.03
2018-04-14T16:34:27.769Z,25.67
2018-04-14T16:37:31.117Z,26.43
2018-04-14T16:40:34.421Z,23.80
2018-04-14T16:43:38.509Z,23.90
2018-04-14T16:46:41.827Z,29.97
2018-04-14T16:49:45.153Z,39.13
2018-04-14T16:52:48.449Z,35.07
2018-04-14T16:55:51.778Z,44.73
2018-04-14T16:58:55.093Z,30.43
2018-04-14T17:01:58.439Z,38.07
2018-04-14T17:05:01.778Z,47.23
2018-04-14T17:08:05.091Z,28.33
2018-04-14T17:11:08.409Z,37.40
2018-04-14T17:14:12.505Z,37.33
2018-04-14T17:17:15.832Z,45.50
2018-04-14T17:20:19.917Z,34.87
2018-04-14T17:23:23.262Z,67.83
2018-04-14T17:26:26.576Z,39.33
2018-04-14T17:29:29.900Z,25.67
2018-04-14T17:32:33.261Z,31.17
2018-04-14T17:35:37.309Z,37.30
2018-04-14T17:38:40.614Z,26.40
2018-04-14T17:41:43.945Z,32.33
2018-04-14T17:44:47.244Z,30.53
2018-04-14T17:47:50.569Z,28.93
2018-04-14T17:50:53.864Z,28.93
2018-04-14T17:53:57.183Z,38.10
2018-04-14T17:57:00.481Z,34.87
2018-04-14T18:00:03.817Z,33.23
2018-04-14T18:03:08.624Z,31.10
2018-04-14T18:06:11.948Z,32.00
2018-04-14T18:09:16.049Z,36.77
2018-04-14T18:12:20.116Z,31.97
2018-04-14T18:15:23.433Z,36.93
2018-04-14T18:18:26.742Z,31.67
2018-04-14T18:21:30.076Z,36.40
2018-04-14T18:24:33.393Z,40.00
2018-04-14T18:27:36.714Z,35.77
2018-04-14T18:30:40.045Z,38.83
2018-04-14T18:33:44.125Z,52.50
2018-04-14T18:36:47.472Z,67.13
2018-04-14T18:39:50.828Z,53.07
2018-04-14T18:42:54.133Z,53.43
2018-04-14T18:45:57.454Z,41.70
2018-04-14T18:49:01.553Z,53.30
2018-04-14T18:52:04.901Z,43.00
2018-04-14T18:55:08.217Z,50.67
2018-04-14T18:58:11.544Z,51.90
2018-04-14T19:01:15.645Z,45.47
2018-04-14T19:04:18.944Z,40.43
2018-04-14T19:07:22.275Z,42.80
2018-04-14T19:10:25.584Z,49.43
2018-04-14T19:13:28.904Z,49.00
2018-04-14T19:16:32.212Z,49.30
2018-04-14T19:19:35.533Z,58.93
2018-04-14T19:22:38.855Z,42.50
2018-04-14T19:25:42.944Z,43.63
2018-04-14T19:28:46.265Z,46.17
2018-04-14T19:31:50.334Z,39.50
2018-04-14T19:34:53.644Z,40.87
2018-04-14T19:37:57.020Z,47.13
2018-04-14T19:41:00.285Z,49.03
2018-04-14T19:44:03.617Z,55.33
2018-04-14T19:47:06.920Z,48.97
2018-04-14T19:50:10.264Z,52.43
2018-04-14T19:53:13.573Z,57.83
2018-04-14T19:56:16.896Z,61.90
2018-04-14T19:59:20.201Z,37.07
2018-04-14T20:02:23.537Z,46.33
2018-04-14T20:05:27.605Z,48.80
2018-04-14T20:08:30.921Z,47.03
2018-04-14T20:11:34.225Z,43.10
2018-04-14T20:14:37.541Z,47.83
2018-04-14T20:17:41.615Z,86.37
2018-04-14T20:20:44.953Z,45.27
2018-04-14T20:23:49.024Z,44.63
2018-04-14T20:26:52.350Z,50.67
2018-04-14T20:29:55.692Z,37.93
2018-04-14T20:32:59.005Z,47.37
2018-04-14T20:36:02.329Z,45.03
2018-04-14T20:39:06.404Z,55.97
2018-04-14T20:42:09.723Z,59.90
2018-04-14T20:45:13.049Z,40.70
2018-04-14T20:48:16.373Z,43.13
2018-04-14T20:51:19.702Z,53.47
2018-04-14T20:54:23.040Z,46.00
2018-04-14T20:57:26.351Z,41.13
2018-04-14T21:00:29.676Z,43.27
2018-04-14T21:03:32.985Z,38.10
2018-04-14T21:06:36.314Z,38.57
2018-04-14T21:09:39.617Z,39.43
2018-04-14T21:12:42.937Z,41.23
2018-04-14T21:15:47.025Z,40.13
2018-04-14T21:18:50.390Z,39.77
2018-04-14T21:21:53.682Z,41.73
2018-04-14T21:24:57.001Z,44.37
2018-04-14T21:28:00.324Z,44.37
2018-04-14T21:31:04.401Z,45.77
2018-04-14T21:34:07.741Z,52.60
2018-04-14T21:37:11.046Z,48.37
2018-04-14T21:40:14.361Z,49.10
2018-04-14T21:43:17.669Z,49.90
2018-04-14T21:46:20.984Z,50.53
2018-04-14T21:49:24.289Z,53.17
2018-04-14T21:52:27.601Z,53.50
2018-04-14T21:55:30.928Z,54.10
2018-04-14T21:58:35.001Z,53.03
2018-04-14T22:01:38.361Z,54.57
2018-04-14T22:04:41.669Z,53.37
2018-04-14T22:07:45.009Z,54.30
2018-04-14T22:10:48.304Z,54.80
2018-04-14T22:13:51.617Z,52.17
2018-04-14T22:16:55.689Z,51.13
2018-04-14T22:19:59.029Z,54.03
2018-04-14T22:23:03.104Z,52.13
2018-04-14T22:26:06.421Z,50.90
2018-04-14T22:29:09.728Z,52.70
2018-04-14T22:32:13.822Z,51.73
2018-04-14T22:35:17.127Z,48.33
2018-04-14T22:38:20.449Z,47.40
2018-04-14T22:41:24.538Z,47.63
2018-04-14T22:44:27.836Z,52.03
2018-04-14T22:47:31.169Z,51.77
2018-04-14T22:50:34.486Z,50.67
2018-04-14T22:53:37.809Z,52.37
2018-04-14T22:56:41.110Z,56.97
2018-04-14T22:59:44.434Z,59.03
2018-04-14T23:02:48.540Z,61.33
2018-04-14T23:05:51.845Z,59.73
2018-04-14T23:08:55.950Z,59.17
2018-04-14T23:11:59.255Z,62.53
2018-04-14T23:15:03.358Z,60.23
2018-04-14T23:18:06.662Z,64.33
2018-04-14T23:21:09.988Z,60.43
2018-04-14T23:24:13.290Z,66.43
2018-04-14T23:27:16.616Z,71.30
2018-04-14T23:30:19.911Z,64.47
2018-04-14T23:33:23.230Z,62.63
2018-04-14T23:36:26.533Z,64.27
2018-04-14T23:39:29.856Z,64.40
2018-04-14T23:42:33.157Z,60.93
2018-04-14T23:45:36.477Z,64.53
2018-04-14T23:48:40.549Z,61.77
2018-04-14T23:51:44.653Z,63.50
2018-04-14T23:54:48.725Z,65.73
2018-04-14T23:57:52.062Z,66.07
